Archival Weather

Fukuoka

Fukuoka, Japan (RJFF)

Report from: Tuesday, August 16, 2022 5:30 PM JST
Current time: Sunday, November 27, 2022 4:45 PM JST

Current weather
Weather history
Weather forecast

Present weatherVCSH, light thunderstorm with rain
Temperature27.0°C (80.6°F)
Heat index30.6°C (87.0°F)
Dew point25.0°C (77.0°F)
Winds 11 kts (5.7 m/s, 12.7 mph) South-Southeast (150°)
Visibility6.2 mi. (10 km)
Clouds Few clouds 300 ft. (91 m)
Few clouds with cumulonimbus 3,000 ft. (914 m)
Scattered clouds 4,500 ft. (1,372 m)
Ceiling: Broken clouds 7,000 ft. (2,134 m)
Altimeter29.74 in.Hg (1007 mB)
Relative humidity89 %
Density altitude2,017 ft. (615 m)
Flight conditions Visual Meteorological Conditions
Raw dataRJFF 160830Z 15011KT 9999 VCSH FEW003 FEW030CB SCT045 BKN070 27/25 Q1007 TEMPO 4000 -TSRA BR
An error has occurred. This application may no longer respond until reloaded. Reload 🗙